Time;durP1;ratioP1;P1;durP2;ratioP2;P2;SDS_P1;SDS_P2;PMS_P1;PMS_P2;Temp;Humidity;BMP_temperature;BMP_pressure;BME280_temperature;BME280_humidity;BME280_pressure;Samples;Min_cycle;Max_cycle;Signal;HPM_P1;HPM_P2
2021/07/16 00:00:32;;;;;;;0.20;0.20;;;13.00;99.90;;;;;;6270755;22;20020;-85
2021/07/16 00:03:00;;;;;;;0.30;0.30;;;12.90;99.90;;;;;;6220448;22;20027;-85
2021/07/16 00:05:28;;;;;;;1.42;0.50;;;12.90;99.90;;;;;;6220882;22;20011;-86
2021/07/16 00:07:55;;;;;;;0.65;0.47;;;13.00;99.90;;;;;;6245922;22;20471;-85
2021/07/16 00:10:23;;;;;;;0.20;0.20;;;13.00;99.90;;;;;;6219907;22;20350;-85
2021/07/16 00:12:51;;;;;;;0.45;0.45;;;13.10;99.90;;;;;;6245671;22;20335;-85
2021/07/16 00:15:20;;;;;;;0.55;0.47;;;13.10;99.90;;;;;;6249390;22;20016;-85
2021/07/16 00:17:48;;;;;;;0.32;0.32;;;13.20;99.90;;;;;;6257148;22;20015;-85
2021/07/16 00:20:17;;;;;;;0.40;0.40;;;13.20;99.90;;;;;;6245039;22;20359;-86
2021/07/16 00:22:45;;;;;;;0.47;0.40;;;13.20;99.90;;;;;;6245052;22;20022;-85
2021/07/16 00:25:13;;;;;;;2.03;0.60;;;13.20;99.90;;;;;;6220813;22;20459;-85
2021/07/16 00:27:41;;;;;;;0.20;0.20;;;13.20;99.90;;;;;;6244852;22;20027;-86
2021/07/16 00:30:14;;;;;;;0.55;0.55;;;13.20;99.90;;;;;;6270371;22;20016;-86
2021/07/16 00:32:41;;;;;;;0.40;0.40;;;13.10;99.90;;;;;;6219925;22;20024;-86
2021/07/16 00:35:10;;;;;;;0.40;0.40;;;13.00;99.90;;;;;;6220577;22;20016;-86
2021/07/16 00:37:38;;;;;;;0.50;0.50;;;12.90;99.90;;;;;;6282270;22;20034;-86
2021/07/16 00:40:08;;;;;;;2.05;0.47;;;12.80;99.90;;;;;;6271596;22;20390;-86
2021/07/16 00:42:36;;;;;;;0.63;0.47;;;12.80;99.90;;;;;;6278958;22;20062;-86
2021/07/16 00:45:07;;;;;;;0.50;0.47;;;12.80;99.90;;;;;;6281289;22;20347;-86
2021/07/16 00:47:36;;;;;;;0.32;0.32;;;12.90;99.90;;;;;;6275404;22;20028;-86
2021/07/16 00:50:13;;;;;;;0.35;0.35;;;13.00;99.90;;;;;;6282816;22;20015;-87
2021/07/16 00:52:42;;;;;;;0.30;0.30;;;13.00;99.90;;;;;;6256699;22;20012;-86
2021/07/16 00:55:11;;;;;;;0.65;0.63;;;13.10;99.90;;;;;;6276772;22;20027;-86
2021/07/16 00:57:40;;;;;;;0.45;0.38;;;13.10;99.90;;;;;;6245114;22;20019;-86
2021/07/16 01:00:10;;;;;;;8.38;0.65;;;13.10;99.90;;;;;;6271278;22;20020;-86
2021/07/16 01:02:42;;;;;;;2.30;0.75;;;13.20;99.90;;;;;;6245468;22;20015;-85
2021/07/16 01:05:13;;;;;;;0.52;0.52;;;13.20;99.90;;;;;;6271005;22;20466;-85
2021/07/16 01:07:41;;;;;;;4.85;0.60;;;13.20;99.90;;;;;;6248943;22;20769;-86
2021/07/16 01:10:10;;;;;;;0.57;0.50;;;13.20;99.90;;;;;;6269316;22;20028;-86
2021/07/16 01:12:40;;;;;;;0.52;0.50;;;13.20;99.90;;;;;;6256663;22;20016;-86
2021/07/16 01:15:14;;;;;;;2.95;2.72;;;13.10;99.90;;;;;;6244168;22;20023;-86
2021/07/16 01:17:43;;;;;;;1.85;0.50;;;13.10;99.90;;;;;;6256928;22;20023;-85
2021/07/16 01:20:19;;;;;;;0.35;0.35;;;13.10;99.90;;;;;;6246428;22;20494;-85
2021/07/16 01:22:48;;;;;;;0.50;0.50;;;13.20;99.90;;;;;;6271980;22;20016;-86
2021/07/16 01:25:18;;;;;;;1.85;0.40;;;13.20;99.90;;;;;;6247712;22;20015;-85
2021/07/16 01:27:53;;;;;;;1.25;0.80;;;13.30;99.90;;;;;;6247020;22;20031;-87
2021/07/16 01:30:28;;;;;;;0.30;0.30;;;13.40;99.90;;;;;;6245228;22;20020;-86
2021/07/16 01:32:57;;;;;;;4.22;0.60;;;13.50;99.90;;;;;;6258834;22;20016;-86
2021/07/16 01:35:25;;;;;;;1.13;1.13;;;13.50;99.90;;;;;;6246855;22;20035;-85
2021/07/16 01:37:53;;;;;;;0.75;0.57;;;13.50;99.90;;;;;;6281284;22;20011;-82
2021/07/16 01:40:23;;;;;;;6.57;1.27;;;13.60;99.90;;;;;;6243843;22;20026;-82
2021/07/16 01:42:55;;;;;;;0.53;0.53;;;13.70;99.90;;;;;;6279990;22;20020;-82
2021/07/16 01:45:27;;;;;;;2.17;0.65;;;13.70;99.90;;;;;;6271652;22;20015;-82
2021/07/16 01:47:59;;;;;;;0.50;0.50;;;13.70;99.90;;;;;;6274947;22;20019;-82
2021/07/16 01:50:29;;;;;;;0.50;0.50;;;13.70;99.90;;;;;;6272797;22;20020;-83
2021/07/16 01:52:58;;;;;;;0.40;0.40;;;13.60;99.90;;;;;;6283393;22;20016;-82
2021/07/16 01:55:30;;;;;;;3.92;0.95;;;13.60;99.90;;;;;;6276195;22;20693;-82
2021/07/16 01:58:00;;;;;;;0.40;0.40;;;13.50;99.90;;;;;;6246791;22;20358;-82
2021/07/16 02:00:34;;;;;;;0.40;0.40;;;13.50;99.90;;;;;;6245771;22;20023;-82
2021/07/16 02:03:15;;;;;;;1.27;0.52;;;13.50;99.90;;;;;;6246229;22;20016;-82
2021/07/16 02:05:45;;;;;;;0.50;0.40;;;13.50;99.90;;;;;;6272380;22;20431;-82
2021/07/16 02:08:22;;;;;;;0.68;0.68;;;13.50;99.90;;;;;;6273766;22;20024;-82
2021/07/16 02:10:53;;;;;;;0.63;0.43;;;13.60;99.90;;;;;;6274944;22;20019;-82
2021/07/16 02:13:22;;;;;;;0.50;0.50;;;13.70;99.90;;;;;;6246887;22;20016;-82
2021/07/16 02:15:52;;;;;;;0.65;0.60;;;13.70;99.90;;;;;;6245451;22;20482;-82
2021/07/16 02:18:22;;;;;;;0.63;0.63;;;13.70;99.90;;;;;;6271617;22;20024;-82
2021/07/16 02:20:52;;;;;;;0.52;0.52;;;13.70;99.90;;;;;;6270859;22;20019;-82
2021/07/16 02:23:26;;;;;;;0.90;0.60;;;13.70;99.90;;;;;;6246275;22;20023;-82
2021/07/16 02:25:54;;;;;;;0.45;0.45;;;13.60;99.90;;;;;;6271803;22;20020;-82
2021/07/16 02:28:26;;;;;;;0.52;0.50;;;13.60;99.90;;;;;;6274317;22;20343;-82
2021/07/16 02:30:54;;;;;;;1.40;0.40;;;13.60;99.90;;;;;;6277707;22;20020;-82
2021/07/16 02:33:23;;;;;;;0.50;0.50;;;13.50;99.90;;;;;;6283245;22;20015;-82
2021/07/16 02:35:51;;;;;;;0.52;0.52;;;13.40;99.90;;;;;;6274962;22;20023;-82
2021/07/16 02:38:22;;;;;;;0.50;0.50;;;13.40;99.90;;;;;;6256183;22;20012;-82
2021/07/16 02:40:51;;;;;;;0.60;0.50;;;13.30;99.90;;;;;;6282868;22;20022;-82
2021/07/16 02:43:20;;;;;;;0.40;0.40;;;13.20;99.90;;;;;;6220035;22;20019;-82
2021/07/16 02:45:49;;;;;;;1.02;0.60;;;13.20;99.90;;;;;;6245224;22;20034;-83
2021/07/16 02:48:17;;;;;;;0.80;0.70;;;13.20;99.90;;;;;;6245976;22;20020;-82
2021/07/16 02:50:47;;;;;;;1.25;0.80;;;13.20;99.90;;;;;;6278875;22;20351;-82
2021/07/16 02:53:16;;;;;;;0.98;0.70;;;13.20;99.90;;;;;;6271390;22;20023;-81
2021/07/16 02:55:44;;;;;;;0.70;0.70;;;13.30;99.90;;;;;;6270705;22;20031;-81
2021/07/16 02:58:12;;;;;;;3.28;1.10;;;13.30;99.90;;;;;;6270889;22;20011;-82
2021/07/16 03:00:40;;;;;;;0.70;0.70;;;13.20;99.90;;;;;;6245265;22;20466;-82
2021/07/16 03:03:09;;;;;;;2.78;0.77;;;13.20;99.90;;;;;;6252323;22;20325;-82
2021/07/16 03:05:38;;;;;;;0.80;0.80;;;13.10;99.90;;;;;;6246687;22;20435;-82
2021/07/16 03:08:10;;;;;;;1.15;1.05;;;13.10;99.90;;;;;;6247858;22;20016;-82
2021/07/16 03:10:44;;;;;;;0.50;0.50;;;13.00;99.90;;;;;;6245061;22;20011;-82
2021/07/16 03:13:15;;;;;;;1.27;0.60;;;13.00;99.90;;;;;;6245973;22;20016;-82
2021/07/16 03:15:45;;;;;;;6.03;2.40;;;13.00;99.90;;;;;;6273887;22;20027;-82
2021/07/16 03:18:13;;;;;;;0.65;0.65;;;13.00;99.90;;;;;;6271169;22;20093;-82
2021/07/16 03:20:44;;;;;;;1.00;0.70;;;13.00;99.90;;;;;;6245540;22;20020;-82
2021/07/16 03:23:14;;;;;;;0.77;0.77;;;13.10;99.90;;;;;;6277270;22;20343;-82
2021/07/16 03:25:45;;;;;;;3.97;0.70;;;13.00;99.90;;;;;;6246571;22;20018;-82
2021/07/16 03:28:13;;;;;;;0.52;0.52;;;13.00;99.90;;;;;;6246211;22;20482;-82
2021/07/16 03:30:41;;;;;;;0.55;0.55;;;13.10;99.90;;;;;;6252701;22;20378;-82
2021/07/16 03:33:09;;;;;;;0.77;0.70;;;13.10;99.90;;;;;;6257247;22;20450;-82
2021/07/16 03:35:37;;;;;;;2.35;0.90;;;13.20;99.90;;;;;;6245097;22;20032;-82
2021/07/16 03:38:05;;;;;;;1.83;1.55;;;13.20;99.90;;;;;;6281987;22;20016;-82
2021/07/16 03:40:33;;;;;;;1.27;1.17;;;13.20;99.90;;;;;;6256765;22;20015;-82
2021/07/16 03:43:01;;;;;;;0.93;0.70;;;13.20;99.90;;;;;;6277556;22;20026;-82
2021/07/16 03:45:34;;;;;;;4.32;1.30;;;13.20;99.90;;;;;;6220794;22;20015;-81
2021/07/16 03:48:03;;;;;;;2.50;1.63;;;13.20;99.90;;;;;;6273006;22;20023;-82
2021/07/16 03:50:30;;;;;;;0.80;0.80;;;13.20;99.90;;;;;;6280936;22;20043;-82
2021/07/16 03:52:58;;;;;;;2.78;0.70;;;13.20;99.90;;;;;;6271333;22;20020;-82
2021/07/16 03:55:26;;;;;;;1.02;0.80;;;13.30;99.90;;;;;;6275205;22;20020;-82
2021/07/16 03:57:54;;;;;;;2.47;0.82;;;13.30;99.90;;;;;;6270859;22;20016;-81
2021/07/16 04:00:28;;;;;;;0.77;0.73;;;13.40;99.90;;;;;;6271674;22;20019;-82
2021/07/16 04:02:57;;;;;;;4.43;0.60;;;13.40;99.90;;;;;;6220479;22;20026;-82
2021/07/16 04:05:25;;;;;;;2.00;0.85;;;13.40;99.90;;;;;;6282688;22;20016;-81
2021/07/16 04:08:02;;;;;;;0.55;0.55;;;13.40;99.90;;;;;;6244766;22;20024;-81
2021/07/16 04:10:35;;;;;;;3.78;1.45;;;13.40;99.90;;;;;;6270041;22;20023;-81
2021/07/16 04:13:06;;;;;;;1.98;1.15;;;13.30;99.90;;;;;;6270747;22;20054;-81
2021/07/16 04:15:34;;;;;;;;;;;13.30;99.90;;;;;;6276624;22;20031;-81
2021/07/16 04:18:04;;;;;;;7.18;3.95;;;13.40;99.90;;;;;;6281431;22;19922;-81
2021/07/16 04:20:33;;;;;;;4.97;2.20;;;13.40;99.90;;;;;;6281698;22;20024;-81
2021/07/16 04:23:02;;;;;;;9.82;3.58;;;13.40;99.90;;;;;;6245326;22;20026;-82
2021/07/16 04:25:30;;;;;;;1.95;1.23;;;13.50;99.90;;;;;;6245814;22;20026;-82
2021/07/16 04:28:00;;;;;;;11.35;1.30;;;13.50;99.90;;;;;;6273387;22;20024;-82
2021/07/16 04:30:30;;;;;;;4.00;0.88;;;13.50;99.90;;;;;;6279806;22;20030;-81
2021/07/16 04:33:00;;;;;;;4.47;2.30;;;13.50;99.90;;;;;;6281471;22;20507;-82
2021/07/16 04:35:29;;;;;;;4.28;2.45;;;13.50;99.90;;;;;;6275838;22;20027;-82
2021/07/16 04:37:57;;;;;;;3.47;1.88;;;13.50;99.90;;;;;;6283255;22;20083;-82
2021/07/16 04:40:25;;;;;;;8.43;3.15;;;13.60;99.90;;;;;;6269401;22;20030;-81
2021/07/16 04:42:56;;;;;;;9.60;3.45;;;13.60;99.90;;;;;;6244933;22;20016;-81
2021/07/16 04:45:26;;;;;;;9.30;3.72;;;13.60;99.90;;;;;;6272576;22;20018;-82
2021/07/16 04:47:54;;;;;;;18.75;2.90;;;13.60;99.90;;;;;;6264687;22;20038;-81
2021/07/16 04:50:22;;;;;;;3.42;1.90;;;13.70;99.90;;;;;;6282639;22;20023;-79
2021/07/16 04:52:51;;;;;;;4.05;2.08;;;13.70;99.90;;;;;;6284014;22;20019;-80
2021/07/16 04:55:20;;;;;;;2.15;0.95;;;13.80;99.90;;;;;;6277230;22;20011;-81
2021/07/16 04:57:49;;;;;;;2.08;1.30;;;13.80;99.90;;;;;;6281925;22;20023;-81
2021/07/16 05:00:18;;;;;;;4.75;1.70;;;13.80;99.90;;;;;;6268668;22;20354;-81
2021/07/16 05:02:46;;;;;;;2.53;1.63;;;13.80;99.90;;;;;;6279614;22;20027;-83
2021/07/16 05:05:14;;;;;;;3.10;1.88;;;13.90;99.90;;;;;;6246411;22;20016;-82
2021/07/16 05:07:42;;;;;;;3.53;1.55;;;13.80;99.90;;;;;;6274313;22;20241;-83
2021/07/16 05:10:10;;;;;;;6.45;1.92;;;13.70;99.90;;;;;;6244167;22;20043;-82
2021/07/16 05:12:40;;;;;;;3.35;1.20;;;13.80;99.90;;;;;;6281863;22;20431;-82
2021/07/16 05:15:10;;;;;;;4.53;1.85;;;13.80;99.90;;;;;;6269731;22;20016;-83
2021/07/16 05:17:38;;;;;;;10.55;1.50;;;13.80;99.90;;;;;;6283827;22;20423;-82
2021/07/16 05:20:07;;;;;;;17.67;3.67;;;13.80;99.90;;;;;;6246913;22;20026;-82
2021/07/16 05:22:35;;;;;;;4.63;2.40;;;13.80;99.90;;;;;;6245072;22;20474;-84
2021/07/16 05:25:04;;;;;;;8.35;3.70;;;13.90;99.90;;;;;;6220463;22;20022;-83
2021/07/16 05:27:32;;;;;;;3.15;1.33;;;13.90;99.90;;;;;;6245273;22;20020;-82
2021/07/16 05:30:00;;;;;;;7.40;2.85;;;13.90;99.90;;;;;;6218921;22;20019;-82
2021/07/16 05:32:28;;;;;;;6.15;2.20;;;13.90;99.90;;;;;;6269808;22;20031;-82
2021/07/16 05:34:56;;;;;;;6.38;2.50;;;13.90;99.90;;;;;;6244045;22;20070;-82
2021/07/16 05:37:24;;;;;;;5.10;1.55;;;13.90;99.90;;;;;;6281834;22;20011;-82
2021/07/16 05:39:52;;;;;;;8.07;1.70;;;13.80;99.90;;;;;;6273280;22;20024;-84
2021/07/16 05:42:20;;;;;;;5.43;1.05;;;13.90;99.90;;;;;;6254025;22;20012;-83
2021/07/16 05:44:50;;;;;;;0.95;0.85;;;14.00;99.90;;;;;;6255733;22;20008;-83
2021/07/16 05:47:18;;;;;;;0.40;0.40;;;14.00;99.90;;;;;;6277287;22;20343;-83
2021/07/16 05:49:46;;;;;;;0.75;0.50;;;14.00;99.90;;;;;;6245257;22;20070;-83
2021/07/16 05:52:14;;;;;;;0.40;0.38;;;14.00;99.90;;;;;;6207075;22;20027;-83
2021/07/16 05:54:42;;;;;;;1.50;0.50;;;14.10;99.90;;;;;;6240270;22;20020;-84
2021/07/16 05:57:22;;;;;;;;;;;14.10;99.90;;;;;;6221446;22;20450;-85
2021/07/16 06:00:07;;;;;;;0.88;0.50;;;14.00;99.90;;;;;;6244760;22;19988;-89
2021/07/16 06:02:38;;;;;;;0.43;0.43;;;14.10;99.90;;;;;;6278531;22;20031;-84
2021/07/16 06:05:07;;;;;;;0.82;0.73;;;14.20;99.90;;;;;;6269869;22;20443;-84
2021/07/16 06:07:35;;;;;;;0.35;0.35;;;14.20;99.90;;;;;;6218345;22;20541;-84
2021/07/16 06:10:07;;;;;;;0.30;0.30;;;14.20;99.90;;;;;;6269232;22;20026;-83
2021/07/16 06:12:39;;;;;;;2.92;0.70;;;14.10;99.90;;;;;;6272124;22;20431;-84
2021/07/16 06:15:10;;;;;;;0.68;0.50;;;14.20;99.90;;;;;;6252660;22;20012;-84
2021/07/16 06:17:39;;;;;;;0.55;0.55;;;14.30;99.90;;;;;;6285316;22;20019;-83
2021/07/16 06:20:09;;;;;;;0.55;0.50;;;14.40;99.90;;;;;;6248364;22;20027;-83
2021/07/16 06:22:37;;;;;;;0.50;0.50;;;14.30;99.90;;;;;;6270475;22;20020;-84
2021/07/16 06:25:06;;;;;;;0.35;0.35;;;14.40;99.90;;;;;;6284475;22;20253;-84
2021/07/16 06:27:39;;;;;;;10.43;0.65;;;14.40;99.90;;;;;;6271761;22;20074;-84
2021/07/16 06:30:08;;;;;;;1.55;0.38;;;14.40;99.90;;;;;;6278280;22;20027;-84
2021/07/16 06:32:37;;;;;;;3.10;2.20;;;14.50;99.90;;;;;;6283904;22;20011;-84
2021/07/16 06:35:07;;;;;;;0.75;0.75;;;14.60;99.90;;;;;;6279391;22;20019;-84
2021/07/16 06:37:36;;;;;;;0.50;0.50;;;14.70;99.90;;;;;;6220760;22;20015;-84
2021/07/16 06:40:06;;;;;;;1.92;0.60;;;14.70;99.90;;;;;;6268974;22;20039;-85
2021/07/16 06:42:38;;;;;;;0.52;0.52;;;14.80;99.90;;;;;;6240493;22;20020;-85
2021/07/16 06:45:10;;;;;;;0.30;0.30;;;14.80;99.90;;;;;;6244769;22;20026;-80
2021/07/16 06:47:39;;;;;;;0.60;0.60;;;14.90;99.90;;;;;;6245751;22;20028;-77
2021/07/16 06:50:09;;;;;;;0.52;0.52;;;15.00;99.90;;;;;;6281397;22;20011;-78
2021/07/16 06:52:38;;;;;;;1.90;0.60;;;15.00;99.90;;;;;;6284011;22;20019;-78
2021/07/16 06:55:07;;;;;;;0.55;0.55;;;15.10;99.90;;;;;;6270387;22;20016;-78
2021/07/16 06:57:35;;;;;;;1.50;0.93;;;15.20;99.90;;;;;;6283544;22;20008;-78
2021/07/16 07:00:05;;;;;;;0.88;0.88;;;15.20;99.90;;;;;;6268283;22;20434;-78
2021/07/16 07:02:35;;;;;;;3.88;0.95;;;15.20;99.90;;;;;;6243250;22;20023;-83
2021/07/16 07:05:05;;;;;;;;;;;15.20;99.90;;;;;;6272392;22;20011;-82
2021/07/16 07:07:33;;;;;;;0.80;0.65;;;15.30;99.90;;;;;;6275559;22;19919;-83
2021/07/16 07:10:03;;;;;;;2.75;0.80;;;15.40;99.90;;;;;;6271726;22;20027;-83
2021/07/16 07:12:31;;;;;;;0.95;0.85;;;15.50;99.90;;;;;;6283564;22;20039;-83
2021/07/16 07:15:00;;;;;;;0.77;0.63;;;15.50;99.90;;;;;;6278486;22;20011;-83
2021/07/16 07:17:31;;;;;;;1.27;1.17;;;15.50;99.90;;;;;;6282370;22;20012;-82
2021/07/16 07:19:59;;;;;;;1.10;0.87;;;15.50;99.90;;;;;;6273190;22;20027;-82
2021/07/16 07:22:27;;;;;;;1.40;1.30;;;15.50;99.90;;;;;;6280251;22;20027;-82
2021/07/16 07:24:56;;;;;;;1.42;1.33;;;15.40;99.90;;;;;;6269560;22;20016;-82
2021/07/16 07:27:27;;;;;;;1.20;0.90;;;15.50;99.90;;;;;;6218299;22;20023;-83
2021/07/16 07:30:00;;;;;;;2.45;1.10;;;15.50;99.90;;;;;;6271791;22;20018;-83
2021/07/16 07:32:31;;;;;;;3.65;1.17;;;15.60;99.90;;;;;;6273061;22;20023;-83
2021/07/16 07:35:00;;;;;;;1.42;1.33;;;15.60;99.90;;;;;;6252749;22;20027;-83
2021/07/16 07:37:30;;;;;;;1.48;1.13;;;15.60;99.90;;;;;;6246753;22;20011;-83
2021/07/16 07:40:01;;;;;;;1.38;0.77;;;15.60;99.90;;;;;;6245486;22;20026;-83
2021/07/16 07:42:32;;;;;;;4.05;0.95;;;15.60;99.90;;;;;;6274708;22;20038;-82
2021/07/16 07:45:00;;;;;;;1.65;1.27;;;15.60;99.90;;;;;;6281298;22;20012;-83
2021/07/16 07:47:32;;;;;;;1.45;1.35;;;15.60;99.90;;;;;;6267874;22;20027;-83
2021/07/16 07:50:13;;;;;;;5.35;1.35;;;15.70;99.90;;;;;;6245034;22;20434;-83
2021/07/16 07:52:46;;;;;;;1.90;1.15;;;15.80;99.90;;;;;;6272677;22;20015;-83
2021/07/16 07:55:24;;;;;;;1.98;1.63;;;15.80;99.90;;;;;;6271416;22;20019;-84
2021/07/16 07:58:00;;;;;;;1.63;1.20;;;15.80;99.90;;;;;;6272695;22;20011;-84
2021/07/16 08:00:55;;;;;;;6.50;1.63;;;16.00;99.90;;;;;;6223409;22;20036;-84
2021/07/16 08:03:40;;;;;;;1.77;1.30;;;16.00;99.90;;;;;;6272218;22;20473;-84
2021/07/16 08:06:52;;;;;;;2.00;1.50;;;16.10;99.90;;;;;;6209342;22;20481;-84
2021/07/16 08:10:24;;;;;;;2.80;1.90;;;16.00;99.90;;;;;;6183213;23;20032;-84
2021/07/16 08:12:53;;;;;;;1.80;1.58;;;16.10;99.90;;;;;;6195557;23;20013;-84
2021/07/16 08:15:22;;;;;;;2.97;1.52;;;16.20;99.90;;;;;;6210907;23;20407;-83
2021/07/16 08:17:50;;;;;;;2.88;2.67;;;16.20;99.90;;;;;;6184462;23;20035;-83
2021/07/16 08:20:18;;;;;;;3.03;2.08;;;16.20;99.90;;;;;;6185336;23;20025;-83
2021/07/16 08:22:45;;;;;;;2.85;1.92;;;16.30;99.90;;;;;;6191189;23;20016;-83
2021/07/16 08:25:13;;;;;;;4.53;1.48;;;16.30;99.90;;;;;;6160383;23;20024;-83
2021/07/16 08:27:42;;;;;;;2.45;1.73;;;16.30;99.90;;;;;;6184058;23;20040;-83
2021/07/16 08:30:11;;;;;;;3.25;2.13;;;16.30;99.90;;;;;;6217738;23;20028;-84
2021/07/16 08:32:39;;;;;;;4.80;2.47;;;16.40;99.90;;;;;;6257683;22;20410;-84
2021/07/16 08:35:11;;;;;;;1.70;1.60;;;16.30;99.90;;;;;;6278643;22;20027;-84
2021/07/16 08:37:44;;;;;;;5.90;1.73;;;16.40;99.90;;;;;;6272686;22;20019;-82
2021/07/16 08:40:13;;;;;;;1.95;1.85;;;16.30;99.90;;;;;;6245171;22;20030;-83
2021/07/16 08:42:50;;;;;;;3.67;2.15;;;16.30;99.90;;;;;;6282836;22;20027;-83
2021/07/16 08:45:18;;;;;;;3.13;1.73;;;16.40;99.90;;;;;;6284100;22;20406;-82
2021/07/16 08:47:47;;;;;;;1.58;1.48;;;16.50;99.90;;;;;;6270816;22;20030;-86
2021/07/16 08:50:19;;;;;;;2.03;1.92;;;16.50;99.90;;;;;;6281610;22;20016;-84
2021/07/16 08:52:47;;;;;;;2.75;2.50;;;16.60;99.90;;;;;;6284714;22;20019;-86
2021/07/16 08:55:18;;;;;;;1.92;1.50;;;16.70;99.90;;;;;;6279493;22;20015;-86
2021/07/16 08:57:46;;;;;;;2.53;2.33;;;16.80;99.90;;;;;;6284657;22;20477;-86
2021/07/16 09:00:14;;;;;;;1.75;1.65;;;16.80;99.90;;;;;;6272159;22;20030;-85
2021/07/16 09:02:58;;;;;;;5.40;4.28;;;16.70;99.90;;;;;;6270270;22;20027;-85
2021/07/16 09:05:37;;;;;;;8.52;3.08;;;16.80;99.90;;;;;;6222464;22;20015;-86
2021/07/16 09:08:17;;;;;;;6.00;4.05;;;16.70;99.90;;;;;;6221400;22;20020;-86
2021/07/16 09:10:50;;;;;;;2.38;1.73;;;16.80;99.90;;;;;;6273033;22;20023;-85
2021/07/16 09:13:19;;;;;;;4.38;2.42;;;16.90;99.90;;;;;;6283093;22;20020;-86
2021/07/16 09:15:59;;;;;;;3.22;2.92;;;17.20;99.90;;;;;;6275252;22;20024;-85
2021/07/16 09:18:29;;;;;;;2.05;1.85;;;17.40;99.90;;;;;;6247372;22;20020;-86
2021/07/16 09:21:03;;;;;;;2.70;2.45;;;17.50;99.90;;;;;;6247348;22;20016;-86
2021/07/16 09:23:46;;;;;;;2.28;1.88;;;17.80;99.90;;;;;;6221187;22;20486;-84
2021/07/16 09:26:15;;;;;;;2.65;2.45;;;17.90;99.90;;;;;;6283371;22;20031;-84
2021/07/16 09:28:45;;;;;;;4.93;2.40;;;18.10;99.90;;;;;;6283808;22;20016;-85
2021/07/16 09:31:23;;;;;;;4.50;2.67;;;18.20;99.90;;;;;;6251265;22;20031;-82
2021/07/16 09:33:56;;;;;;;2.80;2.60;;;18.20;99.90;;;;;;6284356;22;20379;-82
2021/07/16 09:36:28;;;;;;;5.30;2.70;;;17.90;99.90;;;;;;6271644;22;20043;-81
2021/07/16 09:39:05;;;;;;;2.80;2.60;;;17.80;99.90;;;;;;6277482;22;20019;-81
2021/07/16 09:41:50;;;;;;;2.80;2.55;;;17.80;99.90;;;;;;6243711;22;20492;-81
2021/07/16 09:44:57;;;;;;;3.00;2.80;;;17.80;99.90;;;;;;6270608;22;20024;-81
2021/07/16 09:47:29;;;;;;;2.75;2.55;;;17.80;99.90;;;;;;6258239;22;20274;-81
2021/07/16 09:50:10;;;;;;;3.72;3.42;;;17.90;99.90;;;;;;6274221;22;20012;-81
2021/07/16 09:52:38;;;;;;;3.35;3.05;;;18.20;99.90;;;;;;6256356;22;20394;-81
2021/07/16 09:55:11;;;;;;;6.35;2.15;;;18.50;99.90;;;;;;6271791;22;20016;-80
2021/07/16 09:57:45;;;;;;;6.28;2.20;;;18.50;99.90;;;;;;6246745;22;20015;-81
2021/07/16 10:00:21;;;;;;;2.65;2.45;;;18.40;99.90;;;;;;6272925;22;20023;-80
2021/07/16 10:02:51;;;;;;;2.00;1.80;;;18.30;99.90;;;;;;6280529;22;20020;-80
2021/07/16 10:05:19;;;;;;;1.45;1.30;;;18.20;99.90;;;;;;6283989;22;20023;-82
2021/07/16 10:07:48;;;;;;;1.27;1.17;;;18.50;99.90;;;;;;6272987;22;20027;-80
2021/07/16 10:10:19;;;;;;;1.45;1.35;;;18.80;99.90;;;;;;6278528;22;20023;-80
2021/07/16 10:12:48;;;;;;;;;;;19.00;99.90;;;;;;6285867;22;20015;-79
2021/07/16 10:15:21;;;;;;;0.95;0.88;;;19.00;99.90;;;;;;6278604;22;20238;-77
2021/07/16 10:17:49;;;;;;;3.90;1.15;;;18.80;99.90;;;;;;6285200;22;20007;-77
2021/07/16 10:20:19;;;;;;;0.93;0.68;;;18.70;99.90;;;;;;6273084;22;20030;-77
2021/07/16 10:22:49;;;;;;;0.82;0.82;;;18.80;99.90;;;;;;6279613;22;20016;-78
2021/07/16 10:25:19;;;;;;;1.10;0.82;;;18.90;99.90;;;;;;6285091;22;20015;-78
2021/07/16 10:27:47;;;;;;;0.82;0.73;;;19.20;99.90;;;;;;6276537;22;20031;-75
2021/07/16 10:30:17;;;;;;;0.73;0.70;;;19.10;99.90;;;;;;6282549;22;20020;-77
2021/07/16 10:32:54;;;;;;;1.05;0.77;;;18.80;99.90;;;;;;6285184;22;20020;-77
2021/07/16 10:35:42;;;;;;;0.75;0.75;;;18.80;99.90;;;;;;6279069;22;20023;-78
2021/07/16 10:38:32;;;;;;;1.88;0.75;;;18.70;99.90;;;;;;6271580;22;20027;-78
2021/07/16 10:41:01;;;;;;;1.33;0.77;;;18.70;99.90;;;;;;6285175;22;20031;-78
2021/07/16 10:43:29;;;;;;;0.65;0.65;;;18.70;99.90;;;;;;6277960;22;20027;-78
2021/07/16 10:46:02;;;;;;;0.70;0.70;;;19.00;99.90;;;;;;6284726;22;20019;-78
2021/07/16 10:48:40;;;;;;;0.70;0.70;;;19.30;99.90;;;;;;6271488;22;20031;-79
2021/07/16 10:51:28;;;;;;;0.73;0.70;;;19.50;99.90;;;;;;6279437;22;20339;-79
2021/07/16 10:53:57;;;;;;;1.10;0.60;;;19.80;99.90;;;;;;6284478;22;20023;-79
2021/07/16 10:56:39;;;;;;;0.70;0.70;;;19.80;99.90;;;;;;6271427;22;20536;-80
2021/07/16 10:59:08;;;;;;;0.52;0.52;;;19.70;99.90;;;;;;6278675;22;20016;-79
2021/07/16 11:01:37;;;;;;;0.60;0.60;;;19.50;99.90;;;;;;6282904;22;20024;-77
2021/07/16 11:04:07;;;;;;;0.60;0.60;;;19.40;99.90;;;;;;6271134;22;20016;-79
2021/07/16 11:06:52;;;;;;;0.77;0.68;;;19.30;99.90;;;;;;6254327;22;20062;-80
2021/07/16 11:09:42;;;;;;;0.40;0.40;;;19.30;99.90;;;;;;6281325;22;20024;-79
2021/07/16 11:12:19;;;;;;;0.55;0.55;;;19.10;99.90;;;;;;6275674;22;20016;-79
2021/07/16 11:14:47;;;;;;;0.60;0.60;;;19.10;99.90;;;;;;6279033;22;20024;-79
2021/07/16 11:17:29;;;;;;;0.50;0.50;;;19.20;99.90;;;;;;6283450;22;20039;-79
2021/07/16 11:20:08;;;;;;;0.55;0.55;;;19.50;99.90;;;;;;6275247;22;20039;-78
2021/07/16 11:22:59;;;;;;;0.70;0.70;;;19.80;99.90;;;;;;6278263;22;20019;-78
2021/07/16 11:25:33;;;;;;;1.38;1.02;;;20.00;99.90;;;;;;6283929;22;20018;-78
2021/07/16 11:28:01;;;;;;;0.52;0.52;;;20.00;99.90;;;;;;6275601;22;20027;-79
2021/07/16 11:30:32;;;;;;;0.60;0.60;;;20.20;99.90;;;;;;6271720;22;20024;-78
2021/07/16 11:33:06;;;;;;;0.75;0.65;;;20.40;99.90;;;;;;6274441;22;20019;-79
2021/07/16 11:35:34;;;;;;;0.52;0.52;;;20.20;99.90;;;;;;6277243;22;20673;-81
2021/07/16 11:38:07;;;;;;;0.73;0.65;;;20.10;99.90;;;;;;6257828;22;20019;-79
2021/07/16 11:40:36;;;;;;;0.50;0.50;;;20.30;99.90;;;;;;6272473;22;20027;-79
2021/07/16 11:43:05;;;;;;;0.98;0.47;;;20.50;99.90;;;;;;6278770;22;20019;-78
2021/07/16 11:45:36;;;;;;;0.50;0.50;;;20.20;99.90;;;;;;6283621;22;20439;-78
2021/07/16 11:48:17;;;;;;;0.90;0.60;;;20.10;99.90;;;;;;6275252;22;20031;-78
2021/07/16 11:50:46;;;;;;;0.52;0.43;;;20.00;99.90;;;;;;6280522;22;20022;-79
2021/07/16 11:53:15;;;;;;;0.40;0.40;;;19.90;99.90;;;;;;6283682;22;20016;-77
2021/07/16 11:55:45;;;;;;;0.60;0.60;;;19.70;99.90;;;;;;6276572;22;20027;-78
2021/07/16 11:58:13;;;;;;;0.95;0.95;;;19.60;99.90;;;;;;6282749;22;20580;-78
2021/07/16 12:00:45;;;;;;;0.50;0.50;;;19.50;99.90;;;;;;6283868;22;20327;-77
2021/07/16 12:03:21;;;;;;;1.35;0.57;;;19.60;99.90;;;;;;6278561;22;20027;-77
2021/07/16 12:06:01;;;;;;;0.75;0.75;;;19.70;99.90;;;;;;6284123;22;20008;-78
2021/07/16 12:08:31;;;;;;;0.65;0.65;;;20.20;99.90;;;;;;6272993;22;20030;-79
2021/07/16 12:11:13;;;;;;;2.92;0.75;;;20.40;99.90;;;;;;6272233;22;20020;-82
2021/07/16 12:13:41;;;;;;;0.60;0.60;;;20.40;99.90;;;;;;6277388;22;20022;-82
2021/07/16 12:16:16;;;;;;;0.82;0.50;;;20.50;99.90;;;;;;6272038;22;20028;-85
2021/07/16 12:18:45;;;;;;;1.65;0.40;;;20.60;99.90;;;;;;6277164;22;20015;-80
2021/07/16 12:21:16;;;;;;;0.57;0.57;;;20.70;99.90;;;;;;6281515;22;20540;-81
2021/07/16 12:23:48;;;;;;;1.05;0.40;;;20.90;99.90;;;;;;6271952;22;20028;-78
2021/07/16 12:26:18;;;;;;;0.60;0.60;;;20.70;99.90;;;;;;6270969;22;20015;-77
2021/07/16 12:28:47;;;;;;;0.60;0.60;;;20.50;99.90;;;;;;6283058;22;20016;-79
2021/07/16 12:31:22;;;;;;;0.50;0.50;;;20.30;99.90;;;;;;6277744;22;20024;-81
2021/07/16 12:34:21;;;;;;;0.45;0.45;;;20.30;99.90;;;;;;6283857;22;20023;-85
2021/07/16 12:36:55;;;;;;;0.85;0.82;;;20.30;99.90;;;;;;6232754;22;20339;-83
2021/07/16 12:40:26;;;;;;;0.45;0.45;;;20.20;99.90;;;;;;6229371;22;20046;-86
2021/07/16 12:43:06;;;;;;;1.02;0.60;;;20.20;99.90;;;;;;6220561;22;20378;-86
2021/07/16 12:46:13;;;;;;;0.60;0.50;;;20.30;99.90;;;;;;6220824;22;20030;-85
2021/07/16 12:49:33;;;;;;;0.68;0.60;;;20.20;99.90;;;;;;6243569;22;20026;-88
2021/07/16 12:52:11;;;;;;;0.40;0.40;;;20.00;99.90;;;;;;6268799;22;20027;-87
2021/07/16 12:54:39;;;;;;;0.73;0.68;;;20.00;99.90;;;;;;6243493;22;20556;-86
2021/07/16 12:57:14;;;;;;;0.73;0.73;;;19.90;99.90;;;;;;6281267;22;20018;-87
2021/07/16 12:59:48;;;;;;;0.50;0.50;;;20.00;99.90;;;;;;6268542;22;20023;-86
2021/07/16 13:02:20;;;;;;;0.95;0.60;;;20.00;99.90;;;;;;6279812;22;20027;-83
2021/07/16 13:04:50;;;;;;;0.80;0.80;;;20.10;99.90;;;;;;6283164;22;20018;-85
2021/07/16 13:07:25;;;;;;;0.80;0.77;;;20.20;99.90;;;;;;6276896;22;20019;-87
2021/07/16 13:09:53;;;;;;;1.17;0.98;;;20.30;99.90;;;;;;6277887;22;20016;-84
2021/07/16 13:12:31;;;;;;;0.60;0.60;;;20.20;99.90;;;;;;6268138;22;20667;-84